Time;durP1;ratioP1;P1;durP2;ratioP2;P2;SDS_P1;SDS_P2;PMS_P1;PMS_P2;Temp;Humidity;BMP_temperature;BMP_pressure;BME280_temperature;BME280_humidity;BME280_pressure;Samples;Min_cycle;Max_cycle;Signal;HPM_P1;HPM_P2
2022/12/06 00:01:35;;;;;;;37.50;18.42;;;;;;;1.75;100.00;101495.09;5053687;28;20033;-70
2022/12/06 00:04:05;;;;;;;41.70;19.85;;;;;;;1.86;100.00;101490.13;5052451;28;20128;-70
2022/12/06 00:06:37;;;;;;;40.05;20.23;;;;;;;1.82;100.00;101493.84;5053083;28;20060;-69
2022/12/06 00:09:03;;;;;;;39.38;19.02;;;;;;;1.70;100.00;101491.84;5053432;28;20040;-69
2022/12/06 00:11:32;;;;;;;39.35;18.70;;;;;;;1.79;100.00;101488.75;5053419;28;20087;-69
2022/12/06 00:14:02;;;;;;;38.08;19.35;;;;;;;1.81;100.00;101488.69;5053704;28;20124;-69
2022/12/06 00:16:29;;;;;;;41.25;18.52;;;;;;;1.55;100.00;101496.09;5052542;28;20490;-70
2022/12/06 00:18:57;;;;;;;40.83;19.15;;;;;;;1.70;100.00;101490.06;5052217;28;20442;-70
2022/12/06 00:21:28;;;;;;;40.30;18.70;;;;;;;1.71;100.00;101488.28;5053569;28;20095;-69
2022/12/06 00:23:58;;;;;;;44.67;20.45;;;;;;;1.83;100.00;101486.84;5053633;28;20059;-69
2022/12/06 00:26:26;;;;;;;42.50;21.05;;;;;;;1.90;100.00;101490.81;5052216;28;20098;-69
2022/12/06 00:28:54;;;;;;;41.65;19.95;;;;;;;1.82;100.00;101496.47;5053690;28;20045;-69
2022/12/06 00:31:22;;;;;;;41.17;19.17;;;;;;;1.85;100.00;101493.66;5051972;28;20478;-69
2022/12/06 00:33:49;;;;;;;40.60;19.17;;;;;;;1.70;100.00;101489.22;5053533;28;20045;-69
2022/12/06 00:36:20;;;;;;;40.13;20.05;;;;;;;1.68;100.00;101488.47;5053197;28;20052;-69
2022/12/06 00:38:47;;;;;;;44.78;20.40;;;;;;;1.79;100.00;101480.91;5052018;28;20554;-69
2022/12/06 00:41:17;;;;;;;44.85;20.65;;;;;;;1.88;100.00;101479.59;5053233;28;20037;-70
2022/12/06 00:43:44;;;;;;;41.00;20.10;;;;;;;2.02;100.00;101478.84;5053092;28;20094;-70
2022/12/06 00:46:15;;;;;;;45.70;20.40;;;;;;;1.99;100.00;101481.66;5052252;28;20098;-70
2022/12/06 00:48:43;;;;;;;46.50;20.42;;;;;;;1.88;100.00;101480.44;5052897;28;20053;-70
2022/12/06 00:51:11;;;;;;;53.28;21.25;;;;;;;1.93;100.00;101474.97;5052979;28;20048;-70
2022/12/06 00:53:37;;;;;;;48.25;20.67;;;;;;;1.89;100.00;101471.66;5051613;28;20048;-70
2022/12/06 00:56:04;;;;;;;48.00;20.17;;;;;;;1.86;100.00;101478.84;5053036;28;20102;-69
2022/12/06 00:58:31;;;;;;;45.85;20.63;;;;;;;1.92;100.00;101470.66;5053244;28;20124;-70
2022/12/06 01:01:17;;;;;;;43.63;20.00;;;;;;;1.72;100.00;101476.91;5053102;28;20045;-70
2022/12/06 01:03:45;;;;;;;44.20;21.60;;;;;;;1.81;100.00;101468.59;5051783;28;20047;-70
2022/12/06 01:06:14;;;;;;;43.13;19.95;;;;;;;1.87;100.00;101467.44;5052195;28;20079;-70
2022/12/06 01:08:42;;;;;;;45.83;20.48;;;;;;;1.97;100.00;101467.81;5051619;28;20052;-70
2022/12/06 01:11:10;;;;;;;47.67;21.67;;;;;;;1.99;100.00;101468.56;5054804;28;20041;-69
2022/12/06 01:13:37;;;;;;;46.92;20.45;;;;;;;2.06;100.00;101475.16;5056926;28;20060;-70
2022/12/06 01:16:07;;;;;;;54.03;20.23;;;;;;;2.13;100.00;101476.53;5056666;28;20091;-70
2022/12/06 01:18:34;;;;;;;60.60;20.77;;;;;;;2.07;100.00;101477.72;5057249;28;20045;-70
2022/12/06 01:21:04;;;;;;;50.78;20.70;;;;;;;2.01;100.00;101478.03;5056669;28;20544;-69
2022/12/06 01:23:31;;;;;;;64.10;20.77;;;;;;;1.85;100.00;101477.97;5056694;28;20129;-69
2022/12/06 01:25:58;;;;;;;49.75;20.38;;;;;;;1.87;100.00;101476.16;5056898;28;20510;-70
2022/12/06 01:28:25;;;;;;;45.88;21.83;;;;;;;1.86;100.00;101479.66;5056575;28;20040;-70
2022/12/06 01:30:52;;;;;;;51.25;20.63;;;;;;;1.76;100.00;101482.84;5055325;28;20055;-70
2022/12/06 01:33:19;;;;;;;49.10;21.23;;;;;;;1.87;100.00;101478.75;5056426;28;20133;-70
2022/12/06 01:35:45;;;;;;;48.50;21.77;;;;;;;2.02;100.00;101478.84;5055210;28;20040;-70
2022/12/06 01:38:12;;;;;;;53.47;22.30;;;;;;;2.02;100.00;101471.88;5056586;28;20049;-70
2022/12/06 01:40:44;;;;;;;57.38;21.23;;;;;;;2.04;100.00;101479.66;5056194;28;20090;-70
2022/12/06 01:46:31;;;;;;;48.42;21.15;;;;;;;2.09;100.00;101478.47;5131558;27;20341;-70
2022/12/06 01:49:07;;;;;;;51.55;21.05;;;;;;;2.19;100.00;101477.97;5093282;28;20043;-70
2022/12/06 01:51:34;;;;;;;44.70;19.50;;;;;;;2.26;100.00;101477.56;5111065;28;20055;-70
2022/12/06 01:54:04;;;;;;;50.63;21.20;;;;;;;2.28;100.00;101475.72;5092850;28;20087;-70
2022/12/06 01:56:31;;;;;;;56.13;21.52;;;;;;;2.34;100.00;101479.75;5111116;28;20105;-70
2022/12/06 01:58:58;;;;;;;47.60;22.17;;;;;;;2.36;100.00;101472.66;5111008;28;20054;-70
2022/12/06 02:01:28;;;;;;;60.50;21.73;;;;;;;2.37;100.00;101479.59;5110954;28;20066;-70
2022/12/06 02:03:58;;;;;;;50.03;20.35;;;;;;;2.47;100.00;101479.94;5110837;28;20048;-70
2022/12/06 02:06:26;;;;;;;56.17;21.67;;;;;;;2.49;100.00;101481.56;5109950;28;20378;-70
2022/12/06 02:08:55;;;;;;;53.05;23.02;;;;;;;2.55;100.00;101479.53;5092490;28;20036;-70
2022/12/06 02:11:22;;;;;;;48.78;22.02;;;;;;;2.62;100.00;101473.88;5102350;28;20044;-70
2022/12/06 02:13:50;;;;;;;47.53;21.13;;;;;;;2.60;100.00;101469.63;5090376;28;20052;-70
2022/12/06 02:16:56;;;;;;;51.88;21.33;;;;;;;2.47;100.00;101472.09;5090306;28;20090;-70
2022/12/06 02:19:42;;;;;;;51.85;20.90;;;;;;;2.49;100.00;101473.72;5072065;28;20048;-70
2022/12/06 02:22:30;;;;;;;49.90;21.42;;;;;;;2.46;100.00;101465.19;5090351;28;20048;-70
2022/12/06 02:25:37;;;;;;;54.72;20.85;;;;;;;2.49;100.00;101467.59;5089669;28;20063;-70
2022/12/06 02:31:11;;;;;;;51.50;21.60;;;;;;;2.64;100.00;101474.63;5111157;27;20578;-69
2022/12/06 02:33:56;;;;;;;46.72;20.42;;;;;;;2.71;100.00;101464.66;5111000;28;20044;-70
2022/12/06 02:36:30;;;;;;;53.35;21.60;;;;;;;2.75;100.00;101465.31;5110880;28;20058;-70
2022/12/06 02:39:26;;;;;;;59.05;22.65;;;;;;;2.74;100.00;101466.25;5111102;28;20123;-70
2022/12/06 02:41:58;;;;;;;48.47;20.85;;;;;;;2.64;100.00;101458.09;5110698;28;20126;-70
2022/12/06 02:44:31;;;;;;;52.90;20.67;;;;;;;2.63;100.00;101451.97;5110790;28;20044;-70
2022/12/06 02:46:59;;;;;;;53.40;21.50;;;;;;;2.63;100.00;101456.38;5110868;28;20048;-70
2022/12/06 02:49:31;;;;;;;48.60;20.77;;;;;;;2.66;100.00;101456.22;5110589;28;20032;-69
2022/12/06 02:51:58;;;;;;;;;;;;;;;2.75;100.00;101452.22;5110030;28;20048;-69
2022/12/06 02:54:27;;;;;;;57.17;20.70;;;;;;;2.82;100.00;101457.03;5110709;28;19924;-70
2022/12/06 02:56:54;;;;;;;61.13;21.13;;;;;;;2.83;100.00;101450.03;5109765;28;20070;-70
2022/12/06 02:59:21;;;;;;;56.50;23.08;;;;;;;2.85;100.00;101459.47;5110748;28;20040;-70
2022/12/06 03:01:55;;;;;;;49.70;21.88;;;;;;;2.92;100.00;101451.28;5110816;28;20119;-70
2022/12/06 03:04:48;;;;;;;51.75;22.50;;;;;;;2.94;100.00;101452.88;5109344;28;20105;-70
2022/12/06 03:07:36;;;;;;;54.72;23.10;;;;;;;2.95;100.00;101456.31;5109750;28;20123;-70
2022/12/06 03:10:30;;;;;;;58.30;21.77;;;;;;;2.98;100.00;101448.31;5108989;28;20496;-70
2022/12/06 03:13:18;;;;;;;56.45;21.23;;;;;;;2.91;100.00;101445.22;5109264;28;20039;-69
2022/12/06 03:16:09;;;;;;;62.42;21.77;;;;;;;2.94;100.00;101446.78;5110379;28;20051;-70
2022/12/06 03:18:46;;;;;;;56.75;21.92;;;;;;;3.00;100.00;101446.44;5109294;28;20493;-70
2022/12/06 03:21:22;;;;;;;58.38;22.63;;;;;;;3.03;100.00;101447.09;5092326;28;20529;-70
2022/12/06 03:23:50;;;;;;;57.78;23.23;;;;;;;3.10;100.00;101444.97;5109955;28;20096;-70
2022/12/06 03:26:23;;;;;;;57.90;22.27;;;;;;;3.13;100.00;101443.94;5109996;28;20085;-70
2022/12/06 03:28:55;;;;;;;61.50;22.83;;;;;;;3.10;100.00;101444.16;5108655;28;20130;-70
2022/12/06 03:31:23;;;;;;;51.72;21.52;;;;;;;3.12;100.00;101442.28;5109965;28;20047;-70
2022/12/06 03:33:56;;;;;;;67.10;22.33;;;;;;;3.14;100.00;101438.63;5108577;28;20051;-70
2022/12/06 03:36:26;;;;;;;61.03;22.80;;;;;;;3.16;100.00;101430.66;5108862;28;20054;-71
2022/12/06 03:38:56;;;;;;;58.53;22.38;;;;;;;3.16;100.00;101430.66;5109869;28;20040;-70
2022/12/06 03:41:28;;;;;;;64.22;22.83;;;;;;;3.15;100.00;101434.25;5100355;28;20118;-70
2022/12/06 03:43:57;;;;;;;58.25;22.52;;;;;;;3.22;100.00;101431.16;5096385;28;20063;-70
2022/12/06 03:46:30;;;;;;;55.70;22.15;;;;;;;3.19;100.00;101427.88;5094921;28;20036;-70
2022/12/06 03:49:02;;;;;;;71.43;23.63;;;;;;;3.23;100.00;101432.84;5096129;28;20036;-70
2022/12/06 03:51:33;;;;;;;68.82;24.83;;;;;;;3.27;100.00;101423.00;5096062;28;20576;-70
2022/12/06 03:54:03;;;;;;;73.22;23.27;;;;;;;3.30;100.00;101429.88;5096200;28;20471;-70
2022/12/06 03:56:35;;;;;;;82.55;23.80;;;;;;;3.21;100.00;101436.50;5096111;28;20044;-69
2022/12/06 03:59:04;;;;;;;63.00;23.73;;;;;;;3.24;100.00;101438.94;5096266;28;20064;-69
2022/12/06 04:01:30;;;;;;;63.17;22.92;;;;;;;3.24;100.00;101446.81;5094566;28;20366;-69
2022/12/06 04:03:57;;;;;;;72.13;22.95;;;;;;;3.26;100.00;101437.91;5096015;28;20128;-69
2022/12/06 04:06:25;;;;;;;62.55;22.13;;;;;;;3.28;100.00;101439.63;5094102;28;20127;-70
2022/12/06 04:08:51;;;;;;;56.85;22.13;;;;;;;3.30;100.00;101438.59;5095253;28;20047;-70
2022/12/06 04:11:18;;;;;;;68.05;23.90;;;;;;;3.29;100.00;101436.88;5094716;28;20055;-70
2022/12/06 04:13:45;;;;;;;56.55;22.58;;;;;;;3.23;100.00;101432.00;5094098;28;20486;-69
2022/12/06 04:18:58;;;;;;;78.75;33.90;;;;;;;3.28;100.00;101435.22;5085574;28;20105;-70
2022/12/06 04:24:02;;;;;;;62.22;23.13;;;;;;;3.33;100.00;101425.28;5095339;28;20574;-70
2022/12/06 04:26:29;;;;;;;56.47;24.05;;;;;;;3.34;100.00;101432.22;5094220;28;20043;-70
2022/12/06 04:40:04;;;;;;;62.58;22.73;;;;;;;3.38;100.00;101438.97;5094793;28;20040;-70
2022/12/06 04:45:17;;;;;;;62.72;23.90;;;;;;;3.42;100.00;101435.25;5094868;28;20050;-70
2022/12/06 04:47:44;;;;;;;74.70;25.02;;;;;;;3.39;100.00;101434.56;5077184;28;20051;-70
2022/12/06 04:50:11;;;;;;;58.28;21.58;;;;;;;3.33;100.00;101432.28;5094748;28;20036;-69
2022/12/06 04:52:38;;;;;;;57.30;21.40;;;;;;;3.28;100.00;101434.38;5093968;28;20036;-70
2022/12/06 04:55:05;;;;;;;68.50;23.08;;;;;;;3.24;100.00;101433.72;5094866;28;20068;-69
2022/12/06 04:57:32;;;;;;;55.35;22.27;;;;;;;3.31;100.00;101423.69;5095115;28;20048;-69
2022/12/06 04:59:58;;;;;;;61.15;22.92;;;;;;;3.28;100.00;101422.09;5094448;28;20036;-70
2022/12/06 05:02:25;;;;;;;63.72;22.58;;;;;;;3.27;100.00;101423.00;5094570;28;20044;-70
2022/12/06 05:04:52;;;;;;;62.67;22.38;;;;;;;3.32;100.00;101431.47;5093170;28;20052;-70
2022/12/06 05:07:19;;;;;;;56.55;23.23;;;;;;;3.32;100.00;101428.84;5092814;28;20119;-70
2022/12/06 05:09:46;;;;;;;56.05;22.80;;;;;;;3.36;100.00;101432.97;5094117;28;20404;-69
2022/12/06 05:12:12;;;;;;;55.53;22.58;;;;;;;3.21;100.00;101428.63;5094326;28;20036;-70
2022/12/06 05:14:39;;;;;;;63.15;22.33;;;;;;;3.26;100.00;101431.84;5094500;28;20418;-69
2022/12/06 05:17:05;;;;;;;62.80;22.88;;;;;;;3.35;100.00;101428.66;5093025;28;20097;-70
2022/12/06 05:19:32;;;;;;;62.47;22.40;;;;;;;3.44;100.00;101424.66;5093519;28;20036;-70
2022/12/06 05:21:59;;;;;;;56.97;20.77;;;;;;;3.41;100.00;101430.09;5094080;28;20160;-70
2022/12/06 05:24:26;;;;;;;53.92;21.73;;;;;;;3.41;100.00;101430.09;5094412;28;20043;-70
2022/12/06 05:26:52;;;;;;;64.78;23.38;;;;;;;3.30;100.00;101428.09;5093846;28;20047;-70
2022/12/06 05:29:19;;;;;;;56.80;22.85;;;;;;;3.30;100.00;101429.88;5092768;28;20523;-69
2022/12/06 05:31:46;;;;;;;62.97;23.98;;;;;;;3.38;100.00;101425.84;5093999;28;20515;-69
2022/12/06 05:34:13;;;;;;;63.92;22.77;;;;;;;3.45;100.00;101424.53;5094166;28;20085;-70
2022/12/06 05:36:40;;;;;;;62.08;23.08;;;;;;;3.57;100.00;101430.03;5093993;28;20044;-70
2022/12/06 05:39:07;;;;;;;60.15;23.08;;;;;;;3.60;100.00;101425.44;5093744;28;20039;-70
2022/12/06 05:41:33;;;;;;;54.83;21.77;;;;;;;3.61;100.00;101427.09;5094108;28;20572;-71
2022/12/06 05:44:00;;;;;;;62.03;22.25;;;;;;;3.66;100.00;101426.84;5075757;28;20084;-71
2022/12/06 05:46:27;;;;;;;60.55;22.30;;;;;;;3.68;100.00;101427.59;5094072;28;20497;-71
2022/12/06 05:48:54;;;;;;;53.33;21.40;;;;;;;3.69;100.00;101426.63;5093931;28;20481;-71
2022/12/06 05:51:20;;;;;;;64.95;23.90;;;;;;;3.75;100.00;101423.66;5093797;28;20044;-71
2022/12/06 05:53:47;;;;;;;65.28;24.55;;;;;;;3.75;100.00;101426.28;5092617;28;20114;-71
2022/12/06 05:56:14;;;;;;;76.90;25.55;;;;;;;3.79;100.00;101430.41;5092234;28;20180;-69
2022/12/06 05:58:41;;;;;;;70.43;25.27;;;;;;;3.75;100.00;101431.53;5092427;28;20447;-69
2022/12/06 06:01:08;;;;;;;68.72;25.13;;;;;;;3.77;100.00;101434.06;5093714;28;20044;-70
2022/12/06 06:03:35;;;;;;;66.97;25.40;;;;;;;3.84;100.00;101433.59;5093283;28;20055;-71
2022/12/06 06:06:04;;;;;;;69.95;24.52;;;;;;;3.85;100.00;101432.63;5075271;28;20032;-70
2022/12/06 06:08:31;;;;;;;64.97;24.55;;;;;;;3.88;100.00;101429.00;5092947;28;20104;-70
2022/12/06 06:10:59;;;;;;;67.78;25.38;;;;;;;3.88;100.00;101433.41;5126056;27;20494;-70
2022/12/06 06:13:26;;;;;;;56.90;22.08;;;;;;;3.74;100.00;101429.84;5093389;28;20044;-70
2022/12/06 06:15:53;;;;;;;51.92;21.67;;;;;;;3.77;100.00;101427.03;5093564;28;20036;-69
2022/12/06 06:18:19;;;;;;;56.78;23.33;;;;;;;3.82;100.00;101426.72;5093044;28;20179;-70
2022/12/06 06:20:51;;;;;;;54.42;22.08;;;;;;;3.92;100.00;101432.28;5093361;28;20050;-70
2022/12/06 06:23:19;;;;;;;51.30;20.38;;;;;;;3.85;100.00;101440.50;5093373;28;20044;-70
2022/12/06 06:25:46;;;;;;;51.17;20.65;;;;;;;3.94;100.00;101438.28;5093170;28;20093;-69
2022/12/06 06:28:13;;;;;;;52.20;20.23;;;;;;;3.90;100.00;101434.16;5093265;28;20044;-70
2022/12/06 06:30:40;;;;;;;49.78;18.60;;;;;;;3.88;100.00;101428.16;5092485;28;20056;-70
2022/12/06 06:33:07;;;;;;;49.40;19.13;;;;;;;3.95;100.00;101435.56;5093430;28;20131;-69
2022/12/06 06:35:34;;;;;;;47.45;18.73;;;;;;;3.96;100.00;101433.78;5093284;28;20085;-69
2022/12/06 06:38:01;;;;;;;42.03;17.45;;;;;;;3.98;100.00;101434.53;5093513;28;20409;-70
2022/12/06 06:40:28;;;;;;;50.28;18.95;;;;;;;3.98;100.00;101429.28;5091519;28;20044;-70
2022/12/06 06:42:55;;;;;;;39.38;17.25;;;;;;;4.06;100.00;101428.78;5092874;28;20046;-70
2022/12/06 06:45:23;;;;;;;43.17;15.60;;;;;;;4.07;100.00;101423.44;5092449;28;20085;-70
2022/12/06 06:47:53;;;;;;;40.05;16.90;;;;;;;4.00;100.00;101424.75;5092822;28;20048;-70
2022/12/06 06:50:20;;;;;;;38.30;16.92;;;;;;;4.08;100.00;101424.31;5092589;28;20444;-70
2022/12/06 06:52:47;;;;;;;38.95;16.23;;;;;;;4.10;100.00;101428.53;5091523;28;20531;-70
2022/12/06 06:55:14;;;;;;;34.80;15.63;;;;;;;4.17;100.00;101431.63;5125231;28;20390;-70
2022/12/06 06:57:40;;;;;;;42.80;16.20;;;;;;;4.16;100.00;101433.38;5093048;28;20068;-70
2022/12/06 07:00:08;;;;;;;42.03;16.15;;;;;;;4.21;100.00;101430.47;5091209;28;20036;-70
2022/12/06 07:02:36;;;;;;;39.20;16.17;;;;;;;4.09;100.00;101436.50;5091792;28;20072;-70
2022/12/06 07:05:02;;;;;;;33.45;13.68;;;;;;;3.99;100.00;101423.94;5092359;28;20047;-70
2022/12/06 07:07:30;;;;;;;38.47;14.88;;;;;;;3.90;100.00;101429.75;5080837;28;20124;-71
2022/12/06 07:09:57;;;;;;;44.25;16.92;;;;;;;4.02;100.00;101428.13;5072055;28;20052;-70
2022/12/06 07:12:24;;;;;;;38.55;13.95;;;;;;;4.00;100.00;101427.38;5089062;28;20051;-70
2022/12/06 07:14:51;;;;;;;39.22;14.15;;;;;;;3.97;100.00;101420.56;5093014;28;20095;-70
2022/12/06 07:17:17;;;;;;;37.15;14.38;;;;;;;4.06;100.00;101424.41;5094764;28;20405;-70
2022/12/06 07:19:44;;;;;;;42.03;15.75;;;;;;;4.00;100.00;101423.00;5096779;28;20040;-70
2022/12/06 07:22:11;;;;;;;37.75;13.73;;;;;;;3.98;100.00;101422.25;5096417;28;20098;-70
2022/12/06 07:24:37;;;;;;;36.08;14.23;;;;;;;3.96;100.00;101423.28;5096462;28;20550;-70
2022/12/06 07:27:07;;;;;;;31.80;12.55;;;;;;;3.95;100.00;101430.31;5055255;28;20036;-71
2022/12/06 07:29:34;;;;;;;37.85;13.80;;;;;;;3.99;100.00;101428.34;5095668;28;20086;-72
2022/12/06 07:32:00;;;;;;;33.67;12.95;;;;;;;3.98;100.00;101418.78;5095781;28;20123;-72
2022/12/06 07:34:27;;;;;;;33.00;12.10;;;;;;;4.03;100.00;101422.78;5096708;28;20081;-70
2022/12/06 07:36:54;;;;;;;31.88;11.93;;;;;;;3.93;100.00;101428.72;5094073;28;20048;-70
2022/12/06 07:39:20;;;;;;;36.10;12.23;;;;;;;3.92;100.00;101425.25;5098192;28;20109;-70
2022/12/06 07:45:11;;;;;;;37.53;12.00;;;;;;;3.91;100.00;101430.59;5093396;28;20077;-68
2022/12/06 07:47:33;;;;;;;31.65;11.32;;;;;;;3.89;100.00;101435.91;5099938;28;20119;-70
2022/12/06 07:49:59;;;;;;;35.25;13.05;;;;;;;3.98;100.00;101432.75;5092102;28;20036;-70
2022/12/06 07:52:31;;;;;;;29.98;12.55;;;;;;;3.91;100.00;101426.19;5095109;28;20040;-70
2022/12/06 07:54:58;;;;;;;;;;;;;;;3.94;100.00;101433.03;5090136;28;20052;-70
2022/12/06 07:57:25;;;;;;;27.65;11.15;;;;;;;4.03;100.00;101428.03;5078451;28;19920;-70
2022/12/06 07:59:52;;;;;;;33.83;12.18;;;;;;;3.98;100.00;101430.13;5100993;28;20044;-70
2022/12/06 08:02:22;;;;;;;32.45;12.77;;;;;;;4.09;100.00;101429.44;5094992;28;20489;-70
2022/12/06 08:04:49;;;;;;;31.30;11.85;;;;;;;4.13;100.00;101433.59;5091713;28;20046;-70
2022/12/06 08:07:15;;;;;;;33.38;12.57;;;;;;;4.22;100.00;101438.28;5085678;28;20067;-70
2022/12/06 08:09:42;;;;;;;25.80;11.55;;;;;;;4.23;100.00;101442.56;5088531;28;20089;-70
2022/12/06 08:12:09;;;;;;;35.75;13.23;;;;;;;4.34;100.00;101444.53;5080870;28;20128;-71
2022/12/06 08:14:36;;;;;;;34.60;13.38;;;;;;;4.33;100.00;101450.72;5092656;28;20044;-70
2022/12/06 08:17:04;;;;;;;32.83;12.70;;;;;;;4.25;100.00;101449.50;5093977;28;20048;-70
2022/12/06 08:19:31;;;;;;;32.25;12.95;;;;;;;4.20;100.00;101450.66;5092929;28;20036;-70
2022/12/06 08:21:58;;;;;;;35.03;12.75;;;;;;;4.29;100.00;101451.84;5083977;28;20489;-70
2022/12/06 08:24:25;;;;;;;33.33;13.10;;;;;;;4.27;100.00;101456.34;5081820;28;20044;-70
2022/12/06 08:26:52;;;;;;;32.40;12.25;;;;;;;4.23;100.00;101454.88;5063397;28;20036;-70
2022/12/06 08:29:18;;;;;;;34.67;13.07;;;;;;;4.19;100.00;101459.47;5070433;28;20068;-70
2022/12/06 08:31:45;;;;;;;35.35;13.00;;;;;;;4.13;100.00;101458.97;5090037;28;20059;-70
2022/12/06 08:34:14;;;;;;;29.58;11.85;;;;;;;4.19;100.00;101466.50;5087145;28;20050;-70
2022/12/06 08:36:41;;;;;;;30.77;12.15;;;;;;;4.22;100.00;101461.03;5080455;28;20838;-70
2022/12/06 08:39:10;;;;;;;30.40;12.85;;;;;;;4.27;100.00;101455.50;5087832;28;20044;-70
2022/12/06 08:42:09;;;;;;;28.00;11.90;;;;;;;4.29;100.00;101456.25;5086983;28;20101;-70
2022/12/06 08:44:27;;;;;;;33.97;13.00;;;;;;;4.22;100.00;101459.28;5080763;28;20497;-69
2022/12/06 08:46:55;;;;;;;35.38;13.35;;;;;;;4.26;100.00;101454.69;5070892;28;20055;-70
2022/12/06 08:49:23;;;;;;;30.45;13.20;;;;;;;4.19;100.00;101461.25;5081974;28;20047;-70
2022/12/06 08:51:50;;;;;;;36.90;13.00;;;;;;;4.17;100.00;101465.75;5079206;28;20036;-70
2022/12/06 08:54:19;;;;;;;32.22;13.68;;;;;;;4.20;100.00;101465.53;5067087;28;20052;-71
2022/12/06 08:56:46;;;;;;;36.55;13.93;;;;;;;4.22;100.00;101467.16;5076046;28;20040;-70
2022/12/06 08:59:13;;;;;;;36.55;13.30;;;;;;;4.36;100.00;101470.69;5060150;28;20082;-70
2022/12/06 09:01:41;;;;;;;34.25;13.43;;;;;;;4.26;100.00;101475.69;5079046;28;20920;-70
2022/12/06 09:04:09;;;;;;;32.55;13.57;;;;;;;4.31;100.00;101467.50;5083949;28;20048;-70
2022/12/06 09:06:38;;;;;;;31.48;13.13;;;;;;;4.23;100.00;101468.00;5078061;28;20242;-70
2022/12/06 09:09:06;;;;;;;30.45;13.20;;;;;;;4.30;100.00;101471.09;5083630;28;20052;-70
2022/12/06 09:11:33;;;;;;;32.08;13.50;;;;;;;4.29;100.00;101470.22;5079181;28;20129;-70
2022/12/06 09:14:00;;;;;;;34.05;14.00;;;;;;;4.37;100.00;101472.41;5064926;28;20040;-70
2022/12/06 09:16:27;;;;;;;38.60;13.90;;;;;;;4.37;100.00;101481.13;5082776;28;20040;-69
2022/12/06 09:18:54;;;;;;;33.70;14.25;;;;;;;4.40;100.00;101472.19;5079442;28;20040;-69
2022/12/06 09:21:24;;;;;;;34.97;13.90;;;;;;;4.38;100.00;101479.31;5082461;28;20047;-72
2022/12/06 09:23:54;;;;;;;34.92;14.10;;;;;;;4.34;100.00;101473.41;5090822;28;20047;-69
2022/12/06 09:26:21;;;;;;;31.38;12.80;;;;;;;4.38;100.00;101471.44;5092758;28;20051;-69
2022/12/06 09:28:49;;;;;;;35.08;13.80;;;;;;;4.34;100.00;101481.28;5074816;28;20053;-69
2022/12/06 09:31:17;;;;;;;32.33;12.63;;;;;;;4.29;100.00;101482.53;5074834;28;20047;-69
2022/12/06 09:33:44;;;;;;;32.10;12.68;;;;;;;4.28;100.00;101484.31;5095352;28;20048;-69
2022/12/06 09:36:17;;;;;;;30.85;13.25;;;;;;;4.23;100.00;101481.97;5088395;28;20051;-70
2022/12/06 09:38:46;;;;;;;29.65;12.07;;;;;;;4.29;100.00;101485.16;5094753;28;20090;-69
2022/12/06 09:41:32;;;;;;;25.45;11.65;;;;;;;4.23;100.00;101484.59;5064921;28;21650;-69
2022/12/06 09:44:33;;;;;;;28.25;11.90;;;;;;;4.22;100.00;101482.06;5074897;28;20047;-69
2022/12/06 09:50:07;;;;;;;30.05;12.70;;;;;;;4.31;100.00;101492.00;5100447;27;20403;-69
2022/12/06 09:52:58;;;;;;;27.33;11.65;;;;;;;4.27;100.00;101501.00;5081095;28;20055;-70
2022/12/06 09:55:44;;;;;;;31.63;12.10;;;;;;;4.32;100.00;101491.06;5074165;28;20497;-70
2022/12/06 09:58:40;;;;;;;28.27;12.00;;;;;;;4.33;100.00;101492.75;5075085;28;20031;-70
2022/12/06 10:01:47;;;;;;;29.77;12.38;;;;;;;4.33;100.00;101487.50;5076681;28;20431;-70
2022/12/06 10:04:54;;;;;;;32.17;11.40;;;;;;;4.40;100.00;101496.69;5081708;28;20075;-70
2022/12/06 10:07:51;;;;;;;30.55;11.65;;;;;;;4.44;100.00;101484.22;5083601;28;20040;-69
2022/12/06 10:10:50;;;;;;;27.25;11.20;;;;;;;4.52;100.00;101489.81;5080556;28;20044;-70
2022/12/06 10:13:43;;;;;;;29.00;10.23;;;;;;;4.53;100.00;101482.78;5066366;28;20062;-69
2022/12/06 10:16:26;;;;;;;27.15;10.73;;;;;;;4.60;100.00;101486.69;5077146;28;20174;-70
2022/12/06 10:19:01;;;;;;;;;;;;;;;4.58;100.00;101483.31;5081050;28;20471;-70
2022/12/06 10:22:07;;;;;;;24.83;9.35;;;;;;;4.51;100.00;101482.03;5079118;28;20022;-70
2022/12/06 10:25:03;;;;;;;25.55;10.52;;;;;;;4.48;100.00;101480.44;5084720;28;20059;-70
2022/12/06 10:27:36;;;;;;;21.42;9.50;;;;;;;4.54;100.00;101480.03;5063510;28;20048;-70
2022/12/06 10:30:09;;;;;;;24.98;10.07;;;;;;;4.61;100.00;101478.72;5060094;28;20066;-69
2022/12/06 10:33:09;;;;;;;23.13;10.00;;;;;;;4.61;100.00;101470.84;5080137;28;20044;-70
2022/12/06 10:35:58;;;;;;;20.45;9.65;;;;;;;4.53;100.00;101464.38;5079895;28;20040;-69
2022/12/06 10:38:40;;;;;;;24.55;9.35;;;;;;;4.55;100.00;101462.53;5066602;28;20059;-70
2022/12/06 10:41:17;;;;;;;25.55;9.75;;;;;;;4.50;100.00;101470.69;5083322;28;20059;-70
2022/12/06 10:43:54;;;;;;;19.85;8.98;;;;;;;4.54;100.00;101466.06;5081628;28;20136;-70
2022/12/06 10:49:26;;;;;;;26.20;9.40;;;;;;;4.56;100.00;101459.78;5082050;28;20041;-71
2022/12/06 10:52:01;;;;;;;19.17;8.77;;;;;;;4.67;100.00;101461.72;5079984;28;20080;-70
2022/12/06 10:54:39;;;;;;;20.05;9.57;;;;;;;4.69;100.00;101459.81;5076297;28;20044;-70
2022/12/06 10:57:15;;;;;;;27.27;10.07;;;;;;;4.69;100.00;101456.38;5081996;28;20059;-69
2022/12/06 10:59:50;;;;;;;20.98;9.35;;;;;;;4.78;100.00;101456.63;5076053;28;20113;-70
2022/12/06 11:02:57;;;;;;;22.98;9.45;;;;;;;4.83;100.00;101458.13;5061728;28;20044;-69
2022/12/06 11:05:35;;;;;;;22.63;8.70;;;;;;;4.79;100.00;101445.16;5054081;28;20251;-70
2022/12/06 11:08:10;;;;;;;22.38;9.02;;;;;;;4.96;100.00;101445.84;5059117;28;20043;-70
2022/12/06 11:10:38;;;;;;;26.25;9.27;;;;;;;4.92;100.00;101441.75;5052541;28;20064;-69
2022/12/06 11:13:36;;;;;;;23.13;9.05;;;;;;;4.88;100.00;101446.34;5068906;28;20500;-70
2022/12/06 11:16:20;;;;;;;22.15;8.15;;;;;;;4.94;100.00;101442.47;5053299;28;20036;-70
2022/12/06 11:18:48;;;;;;;19.55;8.70;;;;;;;5.00;100.00;101436.81;5065692;28;20047;-70
2022/12/06 11:21:39;;;;;;;22.20;8.80;;;;;;;4.93;100.00;101444.28;5070758;28;20061;-70
2022/12/06 11:24:14;;;;;;;21.10;8.23;;;;;;;4.97;100.00;101435.22;5058086;28;20071;-69
2022/12/06 11:26:49;;;;;;;17.63;8.57;;;;;;;5.02;100.00;101431.44;5059560;28;20051;-70
2022/12/06 11:29:17;;;;;;;21.65;9.25;;;;;;;5.12;100.00;101435.16;5053266;28;20059;-69
2022/12/06 11:31:56;;;;;;;16.52;8.10;;;;;;;5.31;100.00;101437.41;5050975;28;20059;-70
2022/12/06 11:34:30;;;;;;;17.58;8.00;;;;;;;5.26;100.00;101436.91;5067852;28;20117;-69
2022/12/06 11:36:58;;;;;;;20.05;8.10;;;;;;;5.32;100.00;101433.84;5075172;28;20056;-69
2022/12/06 11:39:27;;;;;;;18.52;7.93;;;;;;;5.35;100.00;101437.09;5069774;28;20036;-70
2022/12/06 11:41:57;;;;;;;15.18;6.95;;;;;;;5.41;99.18;101435.03;5074347;28;20032;-70
2022/12/06 11:44:29;;;;;;;18.60;7.60;;;;;;;5.39;99.63;101433.31;5094992;28;20542;-69
2022/12/06 11:46:59;;;;;;;16.90;7.88;;;;;;;5.36;99.22;101428.25;5089892;28;20711;-70
2022/12/06 11:49:33;;;;;;;15.98;7.32;;;;;;;5.34;98.62;101432.78;5093348;28;20143;-69
2022/12/06 11:52:07;;;;;;;17.75;7.18;;;;;;;5.24;98.06;101436.13;5073206;28;20040;-70
2022/12/06 11:54:42;;;;;;;17.05;7.07;;;;;;;5.14;98.12;101433.28;5068392;28;20530;-70
2022/12/06 11:57:21;;;;;;;20.05;7.20;;;;;;;5.11;98.74;101442.22;5066106;28;20044;-70
2022/12/06 12:00:10;;;;;;;13.75;6.45;;;;;;;5.05;98.82;101441.78;5072964;28;20478;-70
2022/12/06 12:02:39;;;;;;;26.85;7.97;;;;;;;5.10;99.02;101440.53;5069128;28;20498;-70
2022/12/06 12:05:34;;;;;;;17.27;7.15;;;;;;;4.98;98.91;101430.81;5073620;28;20055;-70
2022/12/06 12:08:14;;;;;;;17.02;6.70;;;;;;;5.11;99.31;101436.09;5067854;28;20406;-70